Pancake, Texas
Current Conditions -  °F | °C
As of 3:35 AM on Sunday 21 Dec 2014 (Local Time) from KGOP Reporting Station
Overcast Overcast  
Wind Chill: 48°   Ceiling: 1500
Heat Index: 48°   Visibility: 4mi
Dew Point: 46°   Wind: 0mph
Humidity: 93%   Direction: NA
Pressure: 30.13"   Gusts: NA
Location:  31.5973°N, 97.7586°W
Report Text: KGOP 210935Z AUTO 00000KT 4SM OVC015 09/08 A3013 RMK AO2 PWINO
Loading
Personal Weather Stations






























Interactive Weather Map New forecast layout! Learn more

10-Day Weather Forecast

Advertisements
Track Severe Weather on mobile